AV - LB | Pilotos de la V.A




 METAR AND TAF INFORMATION
METAR FOR OPKC
ADDS - METARS form results

(0135 UTC 19 May 2021)
Data provider http://aviationweather.gov/metar/data/
 
METAR text: OPKC 190130Z 33004KT 6000 NSC 30/22 Q1003 NOSIG
Conditions at: OPKC (KARACHI INTL ARP, PK) observed 0130 UTC 19 May 2021
Temperature: 30.0°C (86°F)
Dewpoint: 22.0°C (72°F) [RH = 62%]
Pressure (altimeter): 29.62 inches Hg (1003.0 mb)
Winds: from the NNW (330 degrees) at 5 MPH (4 knots; 2.1 m/s)
Visibility: 4 miles ( 6 km)
Ceiling: at least 12,000 feet AGL
Clouds: sky clear below 12,000 feet AGL
Weather: no significant weather observed at this time

METAR text: OPKC 190100Z 35004KT 6000 NSC 30/22 Q1002 NOSIG
Conditions at: OPKC (KARACHI INTL ARP, PK) observed 0100 UTC 19 May 2021
Temperature: 30.0°C (86°F)
Dewpoint: 22.0°C (72°F) [RH = 62%]
Pressure (altimeter): 29.59 inches Hg (1002.0 mb)
Winds: from the N (350 degrees) at 5 MPH (4 knots; 2.1 m/s)
Visibility: 4 miles ( 6 km)
Ceiling: at least 12,000 feet AGL
Clouds: sky clear below 12,000 feet AGL
Weather: no significant weather observed at this time

Forecast for: OPKC (KARACHI INTL ARP, PK)
Text: TAF OPKC 181530Z 1818/1924 03012KT 4000 HZ SCT030 SCT100
Forecast period: 1800 UTC 18 May 2021 to 0500 UTC 19 May 2021
Forecast type: FROM: standard forecast or significant change
Winds: from the NNE (30 degrees) at 14 MPH (12 knots; 6.2 m/s)
Visibility: 2.49 miles (4.01 km)
Ceiling: at least 12,000 feet AGL
Clouds: scattered clouds at 3000 feet AGL
scattered clouds at 10000 feet AGL
Weather: HZ  (haze)
Text: FM190500 23012G22KT 5000 HZ SCT30 SCT100
Forecast period: 0500 UTC 19 May 2021 to 0000 UTC 20 May 2021
Forecast type: FROM: standard forecast or significant change
Winds: from the SW (230 degrees) at 14 MPH (12 knots; 6.2 m/s)
gusting to 25 MPH (22 knots; 11.3 m/s)
Visibility: 3 miles (5 km)
Ceiling: at least 12,000 feet AGL
Clouds: scattered clouds at 10000 feet AGL
Weather: HZ  (haze)

 AIRPORT MAP

 RUNWAY INFORMATION
Runway 07L Runway length 10500 ft Runway width 151 ft
Runway elevation 77 ft Runway displaced threshold 0 ft Runway heading 75
Runway 25R Runway length 10500 ft Runway width 151 ft
Runway elevation 100 ft Runway displaced threshold 0 ft Runway heading 255
Runway 07R Runway length 11155 ft Runway width 151 ft
Runway elevation 71 ft Runway displaced threshold 0 ft Runway heading 74
Runway 25L Runway length 11155 ft Runway width 151 ft
Runway elevation 89 ft Runway displaced threshold 0 ft Runway heading 254

 AIRPORT FREQUENCIES
Type APP Name KARACHI AP Frequency 125.5 MHZ
Type ATIS Name ATIS Frequency 126.7 MHZ
Type GND Name KARACHI GN Frequency 121.6 MHZ
Type TWR Name KARACHI TW Frequency 118.3 MHZ

 AIRPORT NEAR NAVIGATION AIDS
Type VOR-DME Name Karachi Frequency 112100 KHZ
Type NDB Name Karachi Frequency 271 KHZ